Time;durP1;ratioP1;P1;durP2;ratioP2;P2;SDS_P1;SDS_P2;PMS_P1;PMS_P2;Temp;Humidity;BMP_temperature;BMP_pressure;BME280_temperature;BME280_humidity;BME280_pressure;Samples;Min_cycle;Max_cycle;Signal;HPM_P1;HPM_P2
2021/07/31 00:01:57;;;;;;;23.40;10.65;;;;;;;15.26;100.00;93483.78;5096706;28;20198;-78
2021/07/31 00:04:23;;;;;;;17.75;9.80;;;;;;;15.29;100.00;93480.69;5096508;28;20194;-79
2021/07/31 00:06:49;;;;;;;16.80;9.63;;;;;;;15.33;100.00;93487.06;5096730;28;20206;-78
2021/07/31 00:09:16;;;;;;;15.73;9.00;;;;;;;15.39;100.00;93475.59;5096708;28;20198;-77
2021/07/31 00:11:42;;;;;;;17.42;10.35;;;;;;;15.42;100.00;93469.88;5096395;28;20201;-77
2021/07/31 00:14:09;;;;;;;14.18;8.98;;;;;;;15.45;100.00;93477.25;5096432;28;20198;-79
2021/07/31 00:16:35;;;;;;;14.43;7.65;;;;;;;15.36;100.00;93473.44;5096348;28;20229;-78
2021/07/31 00:19:03;;;;;;;13.07;8.02;;;;;;;15.33;100.00;93474.69;5096278;28;20556;-78
2021/07/31 00:21:29;;;;;;;17.17;9.27;;;;;;;15.30;100.00;93462.03;5096409;28;20201;-80
2021/07/31 00:23:56;;;;;;;14.93;8.82;;;;;;;15.30;100.00;93472.53;5096460;28;20206;-80
2021/07/31 00:26:22;;;;;;;15.45;8.68;;;;;;;15.32;100.00;93474.94;5095799;28;20209;-79
2021/07/31 00:28:49;;;;;;;19.67;8.80;;;;;;;15.36;100.00;93476.06;5096170;28;20197;-77
2021/07/31 00:31:15;;;;;;;15.50;9.40;;;;;;;15.30;100.00;93475.16;5095879;28;20436;-77
2021/07/31 00:33:42;;;;;;;13.70;8.80;;;;;;;15.27;100.00;93478.28;5095973;28;20194;-77
2021/07/31 00:36:09;;;;;;;14.70;9.15;;;;;;;15.24;100.00;93470.06;5094773;28;20249;-78
2021/07/31 00:38:36;;;;;;;16.50;8.55;;;;;;;15.20;100.00;93467.09;5094879;28;20202;-77
2021/07/31 00:41:02;;;;;;;18.65;9.48;;;;;;;15.20;100.00;93464.47;5094789;28;20561;-78
2021/07/31 00:43:29;;;;;;;16.00;9.20;;;;;;;15.23;100.00;93457.97;5094713;28;20205;-79
2021/07/31 00:45:55;;;;;;;17.75;8.88;;;;;;;15.29;100.00;93459.66;5094559;28;20201;-77
2021/07/31 00:48:22;;;;;;;13.98;9.20;;;;;;;15.32;100.00;93464.41;5094515;28;20202;-77
2021/07/31 00:50:48;;;;;;;14.68;9.15;;;;;;;15.28;100.00;93474.63;5094434;28;20668;-77
2021/07/31 00:53:16;;;;;;;17.50;8.98;;;;;;;15.24;100.00;93470.06;5094027;28;20202;-80
2021/07/31 00:55:43;;;;;;;15.75;9.13;;;;;;;15.12;100.00;93463.06;5094466;28;20217;-79
2021/07/31 00:58:09;;;;;;;12.50;7.82;;;;;;;15.01;100.00;93468.38;5094509;28;20198;-78
2021/07/31 01:00:36;;;;;;;16.00;9.15;;;;;;;14.93;100.00;93472.16;5094380;28;20237;-77
2021/07/31 01:03:02;;;;;;;13.93;8.68;;;;;;;14.86;100.00;93471.50;5094526;28;20618;-77
2021/07/31 01:05:29;;;;;;;18.27;9.57;;;;;;;14.79;100.00;93461.91;5094457;28;20194;-77
2021/07/31 01:07:56;;;;;;;22.45;9.75;;;;;;;14.73;100.00;93460.22;5094401;28;20198;-77
2021/07/31 01:10:23;;;;;;;17.63;9.07;;;;;;;14.61;100.00;93449.75;5094337;28;20198;-78
2021/07/31 01:12:51;;;;;;;16.27;8.98;;;;;;;14.56;100.00;93448.81;5094186;28;20194;-78
2021/07/31 01:15:17;;;;;;;20.55;9.40;;;;;;;14.48;100.00;93446.56;5093917;28;20229;-79
2021/07/31 01:17:44;;;;;;;18.38;8.80;;;;;;;14.35;100.00;93456.28;5094275;28;20198;-80
2021/07/31 01:20:12;;;;;;;16.75;9.18;;;;;;;14.31;100.00;93455.16;5094355;28;20206;-80
2021/07/31 01:22:39;;;;;;;14.63;8.65;;;;;;;14.29;100.00;93451.97;5094031;28;20237;-77
2021/07/31 01:25:08;;;;;;;19.42;9.48;;;;;;;14.28;100.00;93450.38;5094077;28;20207;-78
2021/07/31 01:27:35;;;;;;;18.85;9.02;;;;;;;14.25;100.00;93454.28;5094024;28;20202;-80
2021/07/31 01:30:02;;;;;;;14.65;8.77;;;;;;;14.24;100.00;93451.88;5093910;28;20227;-80
2021/07/31 01:32:28;;;;;;;15.65;8.93;;;;;;;14.21;100.00;93449.69;5094042;28;20283;-78
2021/07/31 01:34:54;;;;;;;21.75;10.00;;;;;;;14.21;100.00;93447.06;5058138;28;1021146;-78
2021/07/31 01:37:21;;;;;;;16.63;8.98;;;;;;;14.16;100.00;93457.47;5094839;28;20201;-78
2021/07/31 01:39:49;;;;;;;16.33;8.77;;;;;;;14.05;100.00;93446.75;5094691;28;20562;-78
2021/07/31 01:42:16;;;;;;;19.63;9.63;;;;;;;14.00;100.00;93449.25;5082009;28;20198;-77
2021/07/31 01:44:42;;;;;;;19.38;9.27;;;;;;;14.01;100.00;93445.59;5074643;28;20202;-78
2021/07/31 01:47:09;;;;;;;24.52;10.15;;;;;;;14.16;100.00;93441.72;5074604;28;20209;-77
2021/07/31 01:49:35;;;;;;;18.38;10.65;;;;;;;14.17;100.00;93441.50;5074526;28;20202;-78
2021/07/31 01:52:02;;;;;;;17.15;10.25;;;;;;;14.20;100.00;93442.84;5079709;28;20199;-78
2021/07/31 01:54:28;;;;;;;16.50;9.80;;;;;;;14.24;100.00;93442.16;5074256;28;20199;-77
2021/07/31 01:56:56;;;;;;;17.48;9.05;;;;;;;14.27;100.00;93443.50;5074457;28;20245;-76
2021/07/31 01:59:23;;;;;;;15.77;9.35;;;;;;;14.33;100.00;93442.59;5074394;28;20195;-77
2021/07/31 02:01:49;;;;;;;23.63;10.85;;;;;;;14.40;100.00;93451.13;5074349;28;20199;-77
2021/07/31 02:04:15;;;;;;;17.30;9.35;;;;;;;14.43;100.00;93452.50;5073737;28;20209;-77
2021/07/31 02:06:42;;;;;;;16.10;9.35;;;;;;;14.43;100.00;93450.66;5073812;28;20203;-78
2021/07/31 02:09:08;;;;;;;21.23;9.45;;;;;;;14.49;100.00;93450.78;5074272;28;20209;-77
2021/07/31 02:11:35;;;;;;;15.38;8.20;;;;;;;14.48;100.00;93443.94;5074218;28;20199;-80
2021/07/31 02:14:03;;;;;;;16.17;8.65;;;;;;;14.53;100.00;93452.69;5074573;28;20202;-78
2021/07/31 02:16:29;;;;;;;15.05;8.40;;;;;;;14.48;100.00;93457.84;5074229;28;20605;-79
2021/07/31 02:18:55;;;;;;;20.00;8.05;;;;;;;14.69;100.00;93460.91;5073993;28;20539;-77
2021/07/31 02:21:22;;;;;;;13.05;6.00;;;;;;;15.15;100.00;93461.75;5073758;28;20207;-78
2021/07/31 02:23:48;;;;;;;14.95;6.18;;;;;;;15.35;100.00;93463.94;5073714;28;20207;-78
2021/07/31 02:26:15;;;;;;;10.15;5.22;;;;;;;15.52;100.00;93472.66;5073555;28;20245;-79
2021/07/31 02:28:41;;;;;;;9.88;4.70;;;;;;;15.57;100.00;93465.88;5074337;28;20198;-79
2021/07/31 02:31:11;;;;;;;7.55;4.43;;;;;;;15.56;100.00;93469.56;5093817;28;20600;-76
2021/07/31 02:33:38;;;;;;;7.10;4.55;;;;;;;15.56;100.00;93470.34;5093727;28;20712;-77
2021/07/31 02:36:06;;;;;;;7.53;4.78;;;;;;;15.53;100.00;93461.09;5093563;28;20269;-77
2021/07/31 02:38:32;;;;;;;11.85;4.72;;;;;;;15.47;100.00;93475.22;5093640;28;20557;-77
2021/07/31 02:40:59;;;;;;;7.07;4.30;;;;;;;15.53;100.00;93471.63;5093794;28;20206;-78
2021/07/31 02:43:25;;;;;;;8.75;4.47;;;;;;;15.52;100.00;93472.66;5093614;28;20608;-77
2021/07/31 02:45:51;;;;;;;9.25;4.30;;;;;;;15.53;100.00;93468.97;5093528;28;20198;-79
2021/07/31 02:48:19;;;;;;;7.70;4.20;;;;;;;15.49;100.00;93475.78;5093493;28;20564;-76
2021/07/31 02:50:46;;;;;;;6.78;4.40;;;;;;;15.44;100.00;93475.69;5093492;28;20194;-77
2021/07/31 02:53:12;;;;;;;8.60;5.40;;;;;;;15.40;100.00;93479.81;5093334;28;20199;-78
2021/07/31 02:55:39;;;;;;;7.78;5.32;;;;;;;15.42;100.00;93469.88;5093545;28;20221;-78
2021/07/31 02:58:05;;;;;;;8.07;4.25;;;;;;;15.35;100.00;93475.28;5093487;28;20221;-76
2021/07/31 03:00:32;;;;;;;10.75;4.95;;;;;;;15.36;100.00;93473.44;5093445;28;20560;-78
2021/07/31 03:02:58;;;;;;;10.18;5.45;;;;;;;15.40;100.00;93477.19;5093360;28;20232;-78
2021/07/31 03:05:26;;;;;;;8.50;4.95;;;;;;;15.37;100.00;93475.06;5093274;28;20201;-78
2021/07/31 03:07:52;;;;;;;9.05;4.78;;;;;;;15.34;100.00;93468.41;5093129;28;20194;-78
2021/07/31 03:10:19;;;;;;;9.80;4.78;;;;;;;15.29;100.00;93475.44;5093294;28;20213;-78
2021/07/31 03:12:45;;;;;;;10.35;4.97;;;;;;;15.24;100.00;93470.06;5093356;28;20205;-77
2021/07/31 03:15:12;;;;;;;8.75;4.90;;;;;;;15.22;100.00;93475.59;5093219;28;20198;-76
2021/07/31 03:17:38;;;;;;;7.22;4.75;;;;;;;15.21;100.00;93465.28;5093026;28;20206;-77
2021/07/31 03:20:06;;;;;;;8.05;4.43;;;;;;;15.14;100.00;93460.97;5093035;28;20202;-78
2021/07/31 03:22:34;;;;;;;14.75;4.65;;;;;;;15.10;100.00;93459.03;5092931;28;20206;-78
2021/07/31 03:25:01;;;;;;;10.80;4.70;;;;;;;15.04;100.00;93458.16;5093120;28;20201;-78
2021/07/31 03:27:27;;;;;;;8.02;4.68;;;;;;;14.92;100.00;93452.97;5092864;28;20661;-78
2021/07/31 03:29:54;;;;;;;9.27;4.97;;;;;;;14.83;100.00;93445.69;5093127;28;20204;-77
2021/07/31 03:32:20;;;;;;;10.55;4.80;;;;;;;14.64;100.00;93448.50;5092964;28;20198;-77
2021/07/31 03:34:47;;;;;;;12.32;5.93;;;;;;;14.50;100.00;93455.78;5092681;28;20701;-77
2021/07/31 03:37:13;;;;;;;15.43;5.80;;;;;;;14.39;100.00;93452.19;5092983;28;20233;-77
2021/07/31 03:39:41;;;;;;;8.80;5.18;;;;;;;14.33;100.00;93453.09;5092946;28;20245;-77
2021/07/31 03:42:07;;;;;;;12.52;5.65;;;;;;;14.31;100.00;93449.91;5092964;28;20200;-77
2021/07/31 03:44:34;;;;;;;10.23;5.55;;;;;;;14.28;100.00;93449.56;5092887;28;20231;-77
2021/07/31 03:47:00;;;;;;;11.38;5.60;;;;;;;14.22;100.00;93461.78;5092854;28;20206;-79
2021/07/31 03:49:27;;;;;;;8.55;5.03;;;;;;;14.11;100.00;93455.53;5092681;28;20205;-77
2021/07/31 03:51:53;;;;;;;9.48;5.22;;;;;;;13.96;100.00;93453.38;5092917;28;20200;-78
2021/07/31 03:54:20;;;;;;;13.77;5.30;;;;;;;13.83;100.00;93453.59;5092909;28;20565;-78
2021/07/31 03:56:48;;;;;;;11.90;5.80;;;;;;;13.81;100.00;93455.66;5092736;28;20229;-77
2021/07/31 03:59:14;;;;;;;10.75;5.13;;;;;;;13.73;100.00;93456.00;5092768;28;20194;-79
2021/07/31 04:01:40;;;;;;;9.88;5.70;;;;;;;13.64;100.00;93456.34;5092546;28;20661;-76
2021/07/31 04:04:07;;;;;;;13.85;6.22;;;;;;;13.67;100.00;93455.88;5092495;28;20203;-77
2021/07/31 04:06:33;;;;;;;8.27;5.50;;;;;;;13.68;100.00;93464.53;5092746;28;20205;-77
2021/07/31 04:09:00;;;;;;;10.73;5.82;;;;;;;13.65;100.00;93471.03;5092794;28;20213;-76
2021/07/31 04:11:26;;;;;;;9.05;6.28;;;;;;;13.67;100.00;93469.00;5092692;28;20217;-79
2021/07/31 04:13:55;;;;;;;10.35;5.88;;;;;;;13.75;100.00;93482.81;5092587;28;20195;-76
2021/07/31 04:16:21;;;;;;;9.85;6.00;;;;;;;13.85;100.00;93477.78;5092430;28;20279;-79
2021/07/31 04:18:48;;;;;;;9.40;5.90;;;;;;;13.96;100.00;93484.88;5092733;28;20242;-78
2021/07/31 04:21:14;;;;;;;10.63;6.15;;;;;;;14.02;100.00;93483.16;5092667;28;20619;-77
2021/07/31 04:23:40;;;;;;;8.52;5.68;;;;;;;14.09;100.00;93478.59;5092589;28;20198;-77
2021/07/31 04:26:11;;;;;;;11.50;6.38;;;;;;;14.11;100.00;93476.53;5092403;28;20661;-78
2021/07/31 04:28:38;;;;;;;13.82;5.72;;;;;;;14.15;100.00;93484.75;5093510;28;20217;-77
2021/07/31 04:31:10;;;;;;;8.95;5.60;;;;;;;14.14;100.00;93480.50;5096066;28;20197;-76
2021/07/31 04:33:37;;;;;;;10.27;5.60;;;;;;;14.10;100.00;93480.16;5095876;28;20236;-78
2021/07/31 04:36:03;;;;;;;9.30;5.20;;;;;;;13.99;100.00;93481.78;5095846;28;20242;-77
2021/07/31 04:38:30;;;;;;;11.60;5.32;;;;;;;13.90;100.00;93487.59;5095910;28;20204;-78
2021/07/31 04:40:56;;;;;;;7.72;4.95;;;;;;;13.82;100.00;93488.72;5095978;28;20206;-77
2021/07/31 04:43:23;;;;;;;9.68;5.65;;;;;;;13.77;100.00;93492.06;5095968;28;20198;-77
2021/07/31 04:45:50;;;;;;;9.73;5.35;;;;;;;13.75;100.00;93494.09;5095850;28;20202;-76
2021/07/31 04:48:17;;;;;;;10.93;5.20;;;;;;;13.65;100.00;93494.66;5096037;28;20214;-79
2021/07/31 04:50:44;;;;;;;9.63;5.03;;;;;;;13.60;100.00;93491.91;5095782;28;20653;-77
2021/07/31 04:53:10;;;;;;;12.15;5.13;;;;;;;13.50;100.00;93502.16;5095744;28;20206;-77
2021/07/31 04:55:37;;;;;;;12.20;5.75;;;;;;;13.48;100.00;93499.75;5095617;28;20202;-76
2021/07/31 04:58:03;;;;;;;11.50;5.63;;;;;;;13.50;100.00;93494.28;5095439;28;20225;-76
2021/07/31 05:00:30;;;;;;;11.23;5.40;;;;;;;13.48;100.00;93494.50;5095859;28;20206;-76
2021/07/31 05:02:56;;;;;;;10.18;5.30;;;;;;;13.58;100.00;93493.16;5095691;28;20565;-77
2021/07/31 05:05:24;;;;;;;9.48;4.90;;;;;;;13.66;100.00;93496.25;5095544;28;20202;-78
2021/07/31 05:07:50;;;;;;;9.95;5.72;;;;;;;13.79;100.00;93497.88;5095575;28;20206;-77
2021/07/31 05:10:16;;;;;;;8.57;5.15;;;;;;;13.96;100.00;93495.38;5095390;28;20205;-79
2021/07/31 05:12:43;;;;;;;10.95;5.10;;;;;;;14.10;100.00;93495.13;5095236;28;20675;-78
2021/07/31 05:15:10;;;;;;;8.45;5.00;;;;;;;14.25;100.00;93495.47;5095446;28;20198;-78
2021/07/31 05:17:36;;;;;;;8.75;4.50;;;;;;;14.36;100.00;93496.50;5095311;28;20225;-78
2021/07/31 05:20:03;;;;;;;7.78;4.63;;;;;;;14.35;100.00;93500.13;5095318;28;20202;-78
2021/07/31 05:22:31;;;;;;;7.20;4.57;;;;;;;14.33;100.00;93505.63;5095270;28;20198;-78
2021/07/31 05:24:57;;;;;;;8.60;4.57;;;;;;;14.32;100.00;93496.16;5095021;28;20538;-77
2021/07/31 05:27:23;;;;;;;7.20;4.50;;;;;;;14.27;100.00;93488.16;5094937;28;20198;-80
2021/07/31 05:29:50;;;;;;;6.25;4.28;;;;;;;14.27;100.00;93496.03;5095162;28;20248;-79
2021/07/31 05:32:16;;;;;;;6.22;3.85;;;;;;;14.30;100.00;93495.56;5094959;28;20656;-78
2021/07/31 05:34:43;;;;;;;6.53;3.55;;;;;;;14.32;100.00;93496.16;5094815;28;20256;-79
2021/07/31 05:37:09;;;;;;;5.93;3.80;;;;;;;14.36;100.00;93497.28;5094881;28;20230;-79
2021/07/31 05:39:37;;;;;;;8.40;4.00;;;;;;;14.37;100.00;93490.19;5093674;28;20198;-80
2021/07/31 05:42:05;;;;;;;11.10;3.65;;;;;;;14.49;100.00;93487.53;5095218;28;20213;-78
2021/07/31 05:44:34;;;;;;;7.40;4.20;;;;;;;15.37;100.00;93493.47;5094261;28;20472;-78
2021/07/31 05:47:00;;;;;;;4.60;2.78;;;;;;;16.51;100.00;93491.50;5094810;28;20452;-78
2021/07/31 05:49:29;;;;;;;6.75;2.67;;;;;;;18.18;100.00;93499.75;5094582;28;20657;-77
2021/07/31 05:51:56;;;;;;;4.93;2.15;;;;;;;19.14;100.00;93495.22;5094589;28;20198;-78
2021/07/31 05:54:22;;;;;;;2.45;1.65;;;;;;;19.50;100.00;93503.25;5098995;28;20247;-78
2021/07/31 05:56:50;;;;;;;3.78;1.80;;;;;;;18.70;100.00;93503.50;5102338;28;20228;-77
2021/07/31 05:59:17;;;;;;;5.07;2.00;;;;;;;17.94;100.00;93502.78;5097964;28;20201;-78
2021/07/31 06:01:43;;;;;;;6.05;1.70;;;;;;;17.63;100.00;93496.41;5094678;28;20205;-77
2021/07/31 06:04:09;;;;;;;5.72;2.10;;;;;;;17.29;100.00;93501.13;5094467;28;20209;-77
2021/07/31 06:06:36;;;;;;;2.97;1.70;;;;;;;16.94;100.00;93489.94;5094317;28;20202;-78
2021/07/31 06:09:02;;;;;;;5.28;1.55;;;;;;;16.78;100.00;93496.03;5094182;28;20202;-78
2021/07/31 06:11:29;;;;;;;3.47;1.55;;;;;;;16.62;100.00;93493.22;5094093;28;20680;-78
2021/07/31 06:13:57;;;;;;;4.40;1.88;;;;;;;16.66;100.00;93493.53;5094333;28;20209;-78
2021/07/31 06:16:24;;;;;;;4.55;2.13;;;;;;;16.74;100.00;93492.31;5093871;28;20198;-77
2021/07/31 06:18:50;;;;;;;5.18;1.98;;;;;;;16.76;100.00;93482.31;5094154;28;20233;-78
2021/07/31 06:21:18;;;;;;;14.00;3.17;;;;;;;16.69;100.00;93481.72;5093947;28;20205;-76
2021/07/31 06:23:45;;;;;;;5.05;2.33;;;;;;;16.39;100.00;93493.47;5093373;28;20217;-77
2021/07/31 06:26:11;;;;;;;6.13;1.95;;;;;;;16.41;100.00;93491.38;5093889;28;20661;-78
2021/07/31 06:28:38;;;;;;;5.90;2.17;;;;;;;16.61;100.00;93483.72;5093323;28;20476;-77
2021/07/31 06:31:07;;;;;;;6.22;2.45;;;;;;;17.15;100.00;93484.88;5094000;28;20209;-78
2021/07/31 06:33:34;;;;;;;6.20;2.05;;;;;;;17.45;100.00;93488.84;5093860;28;20564;-79
2021/07/31 06:36:00;;;;;;;5.53;1.90;;;;;;;16.95;100.00;93486.28;5093514;28;20238;-77
2021/07/31 06:38:27;;;;;;;7.60;2.33;;;;;;;16.87;100.00;93484.06;5093869;28;20230;-79
2021/07/31 06:40:53;;;;;;;4.35;2.00;;;;;;;17.10;100.00;93484.81;5093797;28;20224;-77
2021/07/31 06:43:19;;;;;;;7.80;1.83;;;;;;;17.70;100.00;93486.47;5093751;28;20209;-78
2021/07/31 06:45:46;;;;;;;3.88;2.15;;;;;;;17.75;100.00;93488.31;5093687;28;20231;-78
2021/07/31 06:48:13;;;;;;;3.92;2.05;;;;;;;17.42;100.00;93484.91;5093620;28;20229;-78
2021/07/31 06:50:40;;;;;;;4.50;1.85;;;;;;;17.52;100.00;93474.41;5093133;28;20198;-77
2021/07/31 06:53:06;;;;;;;5.15;2.00;;;;;;;17.92;100.00;93480.31;5093605;28;20209;-79
2021/07/31 06:55:33;;;;;;;6.50;1.67;;;;;;;18.15;100.00;93476.50;5093367;28;20672;-78
2021/07/31 06:57:59;;;;;;;3.83;1.90;;;;;;;18.30;100.00;93475.78;5093206;28;20237;-77
2021/07/31 07:00:25;;;;;;;4.13;1.67;;;;;;;18.49;100.00;93478.81;5093210;28;20205;-77
2021/07/31 07:02:52;;;;;;;5.65;2.40;;;;;;;18.08;100.00;93475.91;5092351;28;20792;-77
2021/07/31 07:05:20;;;;;;;5.28;2.45;;;;;;;17.62;100.00;93486.09;5093117;28;20198;-78
2021/07/31 07:07:46;;;;;;;7.03;2.08;;;;;;;17.33;100.00;93475.81;5093423;28;20206;-77
2021/07/31 07:10:13;;;;;;;6.57;2.30;;;;;;;17.19;100.00;93475.44;5093374;28;20202;-76
2021/07/31 07:12:40;;;;;;;5.53;1.80;;;;;;;17.16;100.00;93471.44;5093271;28;20202;-78
2021/07/31 07:15:07;;;;;;;5.05;2.00;;;;;;;16.92;100.00;93476.22;5093181;28;20205;-76
2021/07/31 07:17:34;;;;;;;7.78;2.40;;;;;;;16.54;100.00;93475.19;5093058;28;20225;-79
2021/07/31 07:20:01;;;;;;;6.35;2.17;;;;;;;16.50;100.00;93479.34;5092993;28;20206;-77
2021/07/31 07:22:28;;;;;;;4.35;2.47;;;;;;;16.79;100.00;93481.81;5093202;28;20198;-79
2021/07/31 07:24:55;;;;;;;11.68;2.50;;;;;;;17.06;100.00;93483.75;5093181;28;20198;-79
2021/07/31 07:27:21;;;;;;;9.63;2.33;;;;;;;17.23;100.00;93481.78;5093079;28;20206;-78
2021/07/31 07:29:48;;;;;;;5.05;2.03;;;;;;;17.58;100.00;93488.44;5092978;28;20204;-79
2021/07/31 07:32:14;;;;;;;5.25;2.58;;;;;;;17.98;100.00;93475.84;5092930;28;20224;-76
2021/07/31 07:34:41;;;;;;;3.70;1.80;;;;;;;18.21;100.00;93485.25;5092597;28;20226;-78
2021/07/31 07:37:07;;;;;;;9.35;2.45;;;;;;;17.96;100.00;93488.53;5092799;28;20688;-76
2021/07/31 07:39:35;;;;;;;5.93;1.90;;;;;;;17.71;100.00;93489.88;5092856;28;20208;-76
2021/07/31 07:42:03;;;;;;;3.63;2.00;;;;;;;17.42;100.00;93489.34;5092952;28;20198;-80
2021/07/31 07:44:29;;;;;;;7.05;2.17;;;;;;;17.20;100.00;93492.84;5092852;28;20197;-78
2021/07/31 07:46:56;;;;;;;5.20;2.65;;;;;;;17.31;100.00;93494.53;5092815;28;20204;-78
2021/07/31 07:49:22;;;;;;;6.82;2.35;;;;;;;17.30;100.00;93490.31;5093042;28;20628;-79
2021/07/31 07:51:49;;;;;;;3.90;1.88;;;;;;;17.44;100.00;93493.34;5092929;28;20557;-80
2021/07/31 07:54:15;;;;;;;6.43;2.20;;;;;;;17.40;100.00;93486.97;5092861;28;20198;-79
2021/07/31 07:56:43;;;;;;;6.15;2.20;;;;;;;17.23;100.00;93496.84;5092825;28;20607;-80
2021/07/31 07:59:09;;;;;;;7.28;2.63;;;;;;;17.42;100.00;93489.34;5092713;28;20198;-79
2021/07/31 08:01:37;;;;;;;5.75;2.20;;;;;;;17.75;100.00;93498.88;5092552;28;20210;-80
2021/07/31 08:04:03;;;;;;;6.63;2.10;;;;;;;17.88;100.00;93487.94;5095246;28;20214;-80
2021/07/31 08:06:30;;;;;;;5.05;1.92;;;;;;;18.07;100.00;93479.63;5096701;28;20300;-77
2021/07/31 08:08:56;;;;;;;6.68;1.98;;;;;;;18.32;100.00;93489.56;5096674;28;20255;-76
2021/07/31 08:11:23;;;;;;;5.72;1.77;;;;;;;18.28;100.00;93488.47;5096546;28;20213;-76
2021/07/31 08:13:51;;;;;;;4.85;1.77;;;;;;;18.08;95.78;93484.63;5093667;28;20661;-79
2021/07/31 08:16:17;;;;;;;10.65;2.13;;;;;;;18.37;99.57;93478.19;5094661;28;20221;-78
2021/07/31 08:18:43;;;;;;;3.85;1.65;;;;;;;18.76;97.08;93475.22;5096188;28;20258;-78
2021/07/31 08:21:10;;;;;;;5.20;1.95;;;;;;;18.98;97.87;93489.09;5096388;28;20209;-78
2021/07/31 08:23:36;;;;;;;3.35;1.63;;;;;;;19.00;91.51;93481.69;5096345;28;20202;-79
2021/07/31 08:26:05;;;;;;;3.95;1.42;;;;;;;18.83;89.69;93483.75;5096316;28;20202;-77
2021/07/31 08:28:31;;;;;;;8.77;1.90;;;;;;;18.05;90.21;93489.63;5096062;28;20206;-76
2021/07/31 08:30:59;;;;;;;4.35;1.90;;;;;;;17.80;95.35;93484.94;5096106;28;20210;-78
2021/07/31 08:33:25;;;;;;;2.45;1.42;;;;;;;17.85;90.52;93490.25;5096258;28;20200;-76
2021/07/31 08:35:52;;;;;;;4.47;1.90;;;;;;;17.78;88.51;93485.19;5095888;28;20222;-76
2021/07/31 08:38:18;;;;;;;5.85;1.75;;;;;;;17.78;92.13;93485.19;5096027;28;20309;-78
2021/07/31 08:40:48;;;;;;;3.63;1.40;;;;;;;18.05;89.69;93481.72;5095946;28;20202;-81
2021/07/31 08:43:14;;;;;;;5.28;1.90;;;;;;;18.47;85.50;93484.34;5095773;28;20284;-78
2021/07/31 08:45:41;;;;;;;2.97;1.80;;;;;;;18.58;90.07;93481.75;5095813;28;20205;-78
2021/07/31 08:48:10;;;;;;;4.78;1.73;;;;;;;18.78;86.30;93473.91;5095805;28;20194;-79
2021/07/31 08:50:38;;;;;;;4.30;1.70;;;;;;;19.00;88.02;93480.88;5095857;28;20206;-80
2021/07/31 08:53:04;;;;;;;4.93;1.65;;;;;;;18.77;86.84;93488.19;5095704;28;20198;-78
2021/07/31 08:55:31;;;;;;;2.92;1.58;;;;;;;18.47;87.76;93488.84;5095699;28;20194;-78
2021/07/31 08:58:00;;;;;;;2.92;1.48;;;;;;;18.26;87.04;93488.72;5095504;28;20225;-79
2021/07/31 09:00:26;;;;;;;5.70;1.65;;;;;;;18.40;88.99;93481.16;5095766;28;20198;-77
2021/07/31 09:02:53;;;;;;;7.32;1.95;;;;;;;18.53;87.33;93487.03;5095468;28;20206;-76
2021/07/31 09:05:31;;;;;;;2.70;1.60;;;;;;;18.73;94.03;93484.47;5095601;28;20202;-78
2021/07/31 09:08:02;;;;;;;2.95;1.27;;;;;;;18.48;85.43;93485.16;5095604;28;20292;-76
2021/07/31 09:10:30;;;;;;;4.70;1.95;;;;;;;18.39;87.64;93482.19;5095381;28;20289;-76
2021/07/31 09:12:58;;;;;;;6.95;2.10;;;;;;;18.77;91.16;93476.81;5095527;28;20209;-78
2021/07/31 09:15:33;;;;;;;4.55;1.55;;;;;;;18.90;86.18;93483.50;5095242;28;20198;-78
2021/07/31 09:18:25;;;;;;;5.20;1.50;;;;;;;18.73;84.99;93471.25;5095242;28;20279;-79
2021/07/31 09:21:02;;;;;;;3.88;1.98;;;;;;;18.81;85.77;93468.09;5095257;28;20567;-77
2021/07/31 09:23:46;;;;;;;3.95;2.00;;;;;;;18.79;84.44;93466.78;5095407;28;20219;-77
2021/07/31 09:26:20;;;;;;;4.43;1.60;;;;;;;19.03;82.86;93469.78;5094411;28;20428;-79
2021/07/31 09:28:58;;;;;;;4.05;1.80;;;;;;;19.11;82.06;93471.94;5097121;28;20198;-78
2021/07/31 09:31:24;;;;;;;4.78;1.58;;;;;;;19.32;84.22;93456.91;5098353;28;20198;-79
2021/07/31 09:33:51;;;;;;;4.38;1.67;;;;;;;19.92;82.09;93470.47;5098776;28;20201;-79
2021/07/31 09:36:19;;;;;;;5.72;1.50;;;;;;;19.88;78.34;93455.34;5095282;28;20233;-76
2021/07/31 09:38:48;;;;;;;5.13;1.70;;;;;;;20.18;83.71;93470.44;5097230;28;20232;-76
2021/07/31 09:41:33;;;;;;;4.95;1.60;;;;;;;19.94;73.97;93468.34;5094815;28;20229;-78
2021/07/31 09:44:05;;;;;;;6.22;2.00;;;;;;;20.06;76.20;93459.31;5095006;28;20194;-79
2021/07/31 09:46:43;;;;;;;4.40;1.52;;;;;;;20.40;79.90;93466.69;5094967;28;20199;-78
2021/07/31 09:49:11;;;;;;;5.45;1.58;;;;;;;20.06;80.92;93477.88;5094765;28;20198;-76
2021/07/31 09:51:43;;;;;;;7.88;1.95;;;;;;;19.98;77.01;93471.25;5094731;28;20206;-76
2021/07/31 09:54:12;;;;;;;7.00;1.50;;;;;;;19.96;76.94;93460.13;5094444;28;20198;-76
2021/07/31 09:56:40;;;;;;;9.50;1.77;;;;;;;19.80;77.74;93471.78;5094658;28;20206;-78
2021/07/31 09:59:08;;;;;;;6.03;1.75;;;;;;;19.90;77.53;93462.00;5094438;28;20291;-78
2021/07/31 10:01:37;;;;;;;3.80;1.27;;;;;;;20.03;70.80;93454.56;5094567;28;20225;-78
2021/07/31 10:04:04;;;;;;;8.30;1.77;;;;;;;19.87;76.80;93454.56;5094428;28;20202;-77
2021/07/31 10:06:34;;;;;;;3.92;1.42;;;;;;;19.63;75.05;93445.53;5094299;28;20198;-78
2021/07/31 10:09:03;;;;;;;4.90;1.40;;;;;;;19.44;73.80;93454.00;5093840;28;20436;-77
2021/07/31 10:11:30;;;;;;;3.33;1.52;;;;;;;19.32;77.74;93445.53;5094340;28;20213;-77
2021/07/31 10:13:59;;;;;;;5.00;1.42;;;;;;;19.26;79.42;93444.72;5094133;28;20657;-77
2021/07/31 10:16:28;;;;;;;4.53;1.45;;;;;;;19.14;78.92;93455.53;5094159;28;20233;-79
2021/07/31 10:19:02;;;;;;;6.03;1.88;;;;;;;19.29;86.78;93457.41;5094051;28;20287;-77
2021/07/31 10:21:33;;;;;;;5.20;1.67;;;;;;;19.09;77.01;93458.16;5094382;28;20620;-77
2021/07/31 10:24:03;;;;;;;4.68;1.88;;;;;;;18.93;81.54;93453.88;5093900;28;20195;-77
2021/07/31 10:26:33;;;;;;;7.68;2.05;;;;;;;19.24;80.56;93441.53;5093452;28;20202;-77
2021/07/31 10:29:37;;;;;;;3.20;1.67;;;;;;;19.94;80.28;93435.75;5094047;28;20209;-77
2021/07/31 10:32:45;;;;;;;3.72;1.60;;;;;;;19.85;77.25;93448.75;5093797;28;20198;-76
2021/07/31 10:35:33;;;;;;;4.82;1.50;;;;;;;19.50;73.86;93439.72;5093688;28;20230;-78
2021/07/31 10:38:05;;;;;;;4.97;1.58;;;;;;;20.05;88.00;93439.16;5093821;28;20222;-78
2021/07/31 10:40:54;;;;;;;4.68;1.67;;;;;;;20.34;76.23;93445.47;5093930;28;20194;-76
2021/07/31 10:43:22;;;;;;;4.78;1.88;;;;;;;20.48;81.99;93448.38;5087789;28;20198;-77
2021/07/31 10:45:51;;;;;;;5.85;1.45;;;;;;;20.43;72.47;93458.97;5093436;28;20553;-75
2021/07/31 10:48:36;;;;;;;4.75;1.67;;;;;;;20.58;72.97;93457.34;5093454;28;20607;-78
2021/07/31 10:51:03;;;;;;;3.25;1.40;;;;;;;20.41;71.53;93466.41;5093606;28;20267;-78
2021/07/31 10:53:49;;;;;;;5.00;1.55;;;;;;;20.27;74.63;93466.19;5093537;28;20210;-77
2021/07/31 10:56:20;;;;;;;2.63;1.50;;;;;;;20.45;76.89;93461.34;5093439;28;20198;-78
2021/07/31 10:59:14;;;;;;;3.53;1.75;;;;;;;20.86;73.69;93454.06;5093698;28;20553;-77
2021/07/31 11:01:41;;;;;;;5.68;1.33;;;;;;;20.49;69.67;93462.41;5087366;28;20280;-79
2021/07/31 11:04:07;;;;;;;5.38;1.83;;;;;;;20.39;71.85;93459.81;5093128;28;20213;-79
2021/07/31 11:07:07;;;;;;;4.53;1.90;;;;;;;20.54;68.66;93456.31;5093330;28;20201;-77
2021/07/31 11:09:33;;;;;;;8.32;1.60;;;;;;;20.76;70.22;93462.09;5093441;28;20595;-78
2021/07/31 11:12:40;;;;;;;3.22;1.20;;;;;;;20.72;69.87;93460.22;5093118;28;20205;-78
2021/07/31 11:15:08;;;;;;;3.55;1.58;;;;;;;20.72;71.06;93460.22;5093215;28;20280;-77
2021/07/31 11:17:39;;;;;;;5.20;1.67;;;;;;;20.82;68.13;93444.31;5093122;28;20202;-78
2021/07/31 11:20:39;;;;;;;4.70;1.23;;;;;;;20.92;69.19;93454.88;5093293;28;20229;-76
2021/07/31 11:23:18;;;;;;;4.88;1.38;;;;;;;20.91;69.13;93450.63;5086387;28;20198;-78
2021/07/31 11:25:47;;;;;;;4.47;1.50;;;;;;;21.10;68.90;93450.00;5092913;28;20437;-78
2021/07/31 11:28:15;;;;;;;2.83;1.30;;;;;;;21.64;67.30;93448.38;5093216;28;20202;-79
2021/07/31 11:30:44;;;;;;;2.60;1.25;;;;;;;21.71;68.39;93446.97;5093175;28;20210;-77